Time;durP1;ratioP1;P1;durP2;ratioP2;P2;SDS_P1;SDS_P2;PMS_P1;PMS_P2;Temp;Humidity;BMP_temperature;BMP_pressure;BME280_temperature;BME280_humidity;BME280_pressure;Samples;Min_cycle;Max_cycle;Signal;HPM_P1;HPM_P2
2022/07/12 00:01:03;;;;;;;4.43;3.85;;;;;;;16.84;80.08;102355.72;5048645;28;20032;-77
2022/07/12 00:03:28;;;;;;;5.28;3.67;;;;;;;16.83;80.21;102354.09;5048008;28;20159;-77
2022/07/12 00:05:54;;;;;;;5.13;3.60;;;;;;;16.73;80.33;102353.19;5048540;28;20033;-78
2022/07/12 00:08:19;;;;;;;4.20;3.80;;;;;;;16.88;80.17;102351.91;5047875;28;20149;-77
2022/07/12 00:10:45;;;;;;;7.40;3.92;;;;;;;16.89;80.16;102347.50;5052939;28;20342;-77
2022/07/12 00:13:10;;;;;;;5.13;4.00;;;;;;;16.94;80.07;102346.16;5049043;28;20503;-77
2022/07/12 00:15:36;;;;;;;4.85;3.63;;;;;;;16.98;79.42;102358.03;5048530;28;20037;-77
2022/07/12 00:18:02;;;;;;;5.70;3.70;;;;;;;16.90;80.39;102355.22;5047093;28;20036;-77
2022/07/12 00:20:28;;;;;;;6.85;3.70;;;;;;;16.91;80.13;102349.00;5050200;28;20075;-77
2022/07/12 00:22:54;;;;;;;4.88;3.45;;;;;;;16.89;80.26;102348.31;5049021;28;20122;-77
2022/07/12 00:25:20;;;;;;;4.57;3.42;;;;;;;16.83;80.79;102348.00;5049390;28;20044;-77
2022/07/12 00:27:45;;;;;;;3.83;3.45;;;;;;;16.85;80.43;102349.53;5047352;28;20074;-77
2022/07/12 00:30:11;;;;;;;4.85;3.55;;;;;;;16.77;81.25;102343.28;5049622;28;20029;-77
2022/07/12 00:32:36;;;;;;;4.65;3.50;;;;;;;16.77;80.49;102338.88;5049179;28;20456;-77
2022/07/12 00:35:02;;;;;;;4.57;3.45;;;;;;;16.85;80.34;102348.69;5044706;28;20408;-77
2022/07/12 00:37:28;;;;;;;4.05;3.28;;;;;;;16.73;81.22;102354.00;5047318;28;20037;-77
2022/07/12 00:39:54;;;;;;;5.90;3.33;;;;;;;16.76;80.25;102339.84;5049368;28;20025;-77
2022/07/12 00:42:20;;;;;;;4.20;3.40;;;;;;;16.80;80.11;102343.84;5049967;28;20028;-77
2022/07/12 00:44:45;;;;;;;5.00;3.70;;;;;;;16.84;80.49;102350.50;5050473;28;20032;-77
2022/07/12 00:47:43;;;;;;;4.50;3.70;;;;;;;16.90;80.13;102355.22;5050516;28;20040;-77
2022/07/12 00:50:16;;;;;;;4.75;3.70;;;;;;;16.81;80.22;102345.53;5025318;28;20053;-77
2022/07/12 00:52:47;;;;;;;4.28;3.88;;;;;;;16.73;80.39;102334.84;5048276;28;20029;-77
2022/07/12 00:55:13;;;;;;;4.50;4.10;;;;;;;16.78;80.76;102342.31;5048425;28;20020;-77
2022/07/12 00:57:41;;;;;;;5.28;4.20;;;;;;;16.74;80.84;102333.88;5051386;28;20045;-78
2022/07/12 01:00:09;;;;;;;4.40;4.00;;;;;;;16.74;80.85;102333.88;5049715;28;20025;-77
2022/07/12 01:02:35;;;;;;;5.28;4.05;;;;;;;16.68;80.46;102334.34;5049682;28;20055;-77
2022/07/12 01:05:02;;;;;;;5.07;4.00;;;;;;;16.55;81.02;102333.72;5046922;28;20029;-77
2022/07/12 01:07:28;;;;;;;5.88;4.20;;;;;;;16.59;81.29;102351.69;5045821;28;20029;-77
2022/07/12 01:09:54;;;;;;;4.28;3.85;;;;;;;16.62;80.54;102345.34;5045587;28;20581;-77
2022/07/12 01:12:24;;;;;;;4.30;3.80;;;;;;;16.57;81.39;102344.91;5047055;28;20037;-77
2022/07/12 01:14:51;;;;;;;6.45;4.00;;;;;;;16.57;81.64;102358.00;5047501;28;20056;-77
2022/07/12 01:17:21;;;;;;;5.00;4.00;;;;;;;16.45;82.09;102360.66;5046917;28;20074;-77
2022/07/12 01:19:48;;;;;;;4.60;3.60;;;;;;;16.27;81.61;102343.84;5048097;28;20016;-77
2022/07/12 01:22:15;;;;;;;4.80;3.80;;;;;;;16.25;81.89;102364.09;5047239;28;20503;-77
2022/07/12 01:24:42;;;;;;;4.63;3.90;;;;;;;16.18;81.40;102358.53;5047417;28;20163;-77
2022/07/12 01:27:08;;;;;;;4.00;3.65;;;;;;;16.06;82.34;102367.38;5047516;28;20033;-77
2022/07/12 01:29:34;;;;;;;4.50;3.85;;;;;;;16.05;82.25;102372.72;5046966;28;20025;-77
2022/07/12 01:34:47;;;;;;;4.60;4.20;;;;;;;15.90;82.17;102380.84;5037804;28;20531;-78
2022/07/12 01:37:14;;;;;;;4.57;3.80;;;;;;;15.83;82.67;102374.44;5041644;28;20029;-76
2022/07/12 01:39:40;;;;;;;4.68;4.10;;;;;;;15.80;82.25;102379.91;5045085;28;20024;-77
2022/07/12 01:42:06;;;;;;;4.20;3.80;;;;;;;15.65;82.44;102365.41;5046388;28;20056;-77
2022/07/12 01:44:31;;;;;;;5.72;4.45;;;;;;;15.60;82.67;102372.78;5048013;28;20404;-77
2022/07/12 01:46:58;;;;;;;4.43;4.03;;;;;;;15.69;82.63;102387.78;5045338;28;20025;-77
2022/07/12 01:49:23;;;;;;;5.78;4.38;;;;;;;15.65;83.25;102386.34;5045007;28;20044;-77
2022/07/12 01:51:49;;;;;;;4.72;4.30;;;;;;;15.63;83.13;102383.03;5044894;28;20186;-77
2022/07/12 01:54:14;;;;;;;5.22;4.50;;;;;;;15.69;82.56;102379.91;5042515;28;20039;-77
2022/07/12 01:56:40;;;;;;;4.80;4.40;;;;;;;15.68;83.20;102380.88;5045672;28;20036;-77
2022/07/12 01:59:05;;;;;;;5.43;4.88;;;;;;;15.62;83.49;102376.09;5044480;28;20502;-77
2022/07/12 02:01:32;;;;;;;6.20;5.20;;;;;;;15.64;83.56;102369.81;5044765;28;20039;-77
2022/07/12 02:04:02;;;;;;;5.28;4.78;;;;;;;15.62;84.05;102360.41;5045373;28;20033;-77
2022/07/12 02:06:28;;;;;;;5.82;5.22;;;;;;;15.62;83.78;102370.88;5044507;28;20032;-78
2022/07/12 02:08:53;;;;;;;6.10;5.50;;;;;;;15.66;83.72;102372.34;5044858;28;20044;-77
2022/07/12 02:11:19;;;;;;;6.25;5.65;;;;;;;15.59;84.07;102371.91;5045337;28;20451;-77
2022/07/12 02:13:44;;;;;;;6.60;5.90;;;;;;;15.33;84.65;102329.53;5045193;28;20056;-77
2022/07/12 02:16:09;;;;;;;6.30;5.65;;;;;;;15.59;84.41;102360.63;5046272;28;20063;-77
2022/07/12 02:18:35;;;;;;;7.00;5.90;;;;;;;15.60;84.55;102362.31;5047931;28;20060;-77
2022/07/12 02:21:01;;;;;;;6.28;5.60;;;;;;;15.52;84.20;102344.59;5049133;28;20063;-78
2022/07/12 02:23:27;;;;;;;6.10;5.50;;;;;;;15.57;84.57;102355.53;5048087;28;20028;-77
2022/07/12 02:25:52;;;;;;;6.03;5.47;;;;;;;15.62;84.29;102355.19;5048761;28;20139;-77
2022/07/12 02:28:18;;;;;;;6.30;5.70;;;;;;;15.51;85.28;102352.56;5047858;28;21427;-77
2022/07/12 02:30:43;;;;;;;6.85;5.50;;;;;;;15.48;85.22;102344.94;5048273;28;20112;-77
2022/07/12 02:33:08;;;;;;;5.95;5.10;;;;;;;15.48;85.36;102345.78;5048467;28;20384;-77
2022/07/12 02:35:34;;;;;;;4.70;4.20;;;;;;;15.44;85.10;102351.38;5046006;28;20439;-77
2022/07/12 02:37:59;;;;;;;4.82;4.05;;;;;;;15.36;85.69;102329.25;5049206;28;20154;-77
2022/07/12 02:43:08;;;;;;;4.25;3.83;;;;;;;15.38;85.07;102363.16;5048369;28;20079;-76
2022/07/12 02:45:34;;;;;;;5.15;3.50;;;;;;;15.31;84.51;102347.13;5046686;28;20021;-77
2022/07/12 02:47:59;;;;;;;3.60;3.20;;;;;;;15.29;84.51;102359.47;5045631;28;20032;-77
2022/07/12 02:50:24;;;;;;;3.97;3.30;;;;;;;15.28;84.93;102359.59;5044443;28;20492;-77
2022/07/12 02:52:50;;;;;;;3.92;3.53;;;;;;;15.22;84.85;102354.81;5045971;28;20429;-77
2022/07/12 02:55:15;;;;;;;4.28;3.65;;;;;;;15.20;85.02;102360.19;5047724;28;20035;-77
2022/07/12 02:57:40;;;;;;;4.50;3.80;;;;;;;15.07;85.34;102343.75;5046052;28;20044;-77
2022/07/12 03:00:07;;;;;;;3.88;3.47;;;;;;;15.08;85.39;102345.41;5046547;28;20100;-77
2022/07/12 03:02:32;;;;;;;4.93;3.78;;;;;;;15.18;85.30;102367.28;5043627;28;20388;-77
2022/07/12 03:04:58;;;;;;;4.72;3.80;;;;;;;15.12;85.57;102365.97;5047241;28;20021;-76
2022/07/12 03:07:23;;;;;;;5.22;3.83;;;;;;;14.94;85.80;102345.66;5045955;28;20044;-77
2022/07/12 03:09:48;;;;;;;4.65;3.80;;;;;;;15.05;85.34;102361.34;5046408;28;20423;-77
2022/07/12 03:12:14;;;;;;;5.50;4.25;;;;;;;14.96;85.38;102351.56;5044451;28;20021;-77
2022/07/12 03:14:39;;;;;;;4.63;4.10;;;;;;;14.96;85.82;102357.63;5044472;28;20032;-76
2022/07/12 03:17:05;;;;;;;4.60;4.20;;;;;;;14.96;85.64;102351.56;5047018;28;20498;-76
2022/07/12 03:19:30;;;;;;;4.90;4.40;;;;;;;14.96;85.71;102354.19;5044303;28;21138;-77
2022/07/12 03:21:55;;;;;;;5.20;4.70;;;;;;;14.81;86.25;102357.03;5047470;28;20094;-77
2022/07/12 03:24:21;;;;;;;4.57;4.18;;;;;;;14.93;86.10;102357.88;5043441;28;20586;-77
2022/07/12 03:26:46;;;;;;;4.95;4.53;;;;;;;14.86;86.02;102352.28;5040215;28;20422;-78
2022/07/12 03:29:11;;;;;;;5.78;5.13;;;;;;;14.85;86.18;102350.63;5045207;28;20448;-77
2022/07/12 03:31:37;;;;;;;5.35;4.60;;;;;;;14.78;86.40;102344.19;5045875;28;20033;-77
2022/07/12 03:34:03;;;;;;;5.35;4.85;;;;;;;14.82;86.56;102350.84;5046281;28;20036;-77
2022/07/12 03:36:28;;;;;;;5.13;4.63;;;;;;;14.82;86.60;102350.84;5042031;28;20353;-77
2022/07/12 03:38:54;;;;;;;6.43;4.78;;;;;;;14.86;86.28;102347.06;5045160;28;20027;-77
2022/07/12 03:41:19;;;;;;;5.82;4.82;;;;;;;14.81;86.60;102354.41;5046181;28;20037;-77
2022/07/12 03:43:44;;;;;;;5.60;5.00;;;;;;;14.75;86.80;102339.22;5044468;28;20105;-77
2022/07/12 03:46:10;;;;;;;5.85;5.22;;;;;;;14.87;86.88;102343.50;5046338;28;20469;-77
2022/07/12 03:48:36;;;;;;;5.43;4.93;;;;;;;14.73;87.29;102335.84;5044563;28;20035;-77
2022/07/12 03:51:01;;;;;;;5.70;5.10;;;;;;;14.75;87.40;102331.38;5044676;28;20028;-77
2022/07/12 03:53:26;;;;;;;5.55;5.00;;;;;;;14.90;87.41;102346.81;5044568;28;20039;-77
2022/07/12 03:55:52;;;;;;;5.35;4.85;;;;;;;14.87;87.16;102343.50;5043874;28;20041;-77
2022/07/12 03:58:17;;;;;;;5.70;5.15;;;;;;;14.79;87.19;102335.38;5043877;28;20401;-77
2022/07/12 04:00:42;;;;;;;6.15;5.55;;;;;;;14.77;88.44;102336.47;5045116;28;20083;-77
2022/07/12 04:03:12;;;;;;;5.45;4.95;;;;;;;14.90;87.85;102346.81;5042483;28;20427;-77
2022/07/12 04:05:38;;;;;;;5.05;4.47;;;;;;;14.95;87.57;102339.47;5032070;28;20033;-77
2022/07/12 04:08:03;;;;;;;5.05;4.50;;;;;;;14.96;87.48;102351.56;5044708;28;20581;-76
2022/07/12 04:10:29;;;;;;;5.75;5.15;;;;;;;14.91;87.33;102348.47;5041668;28;20037;-76
2022/07/12 04:12:54;;;;;;;5.40;4.70;;;;;;;14.87;87.43;102351.34;5043565;28;20039;-77
2022/07/12 04:15:20;;;;;;;5.93;5.13;;;;;;;14.86;86.67;102349.69;5046418;28;20060;-77
2022/07/12 04:17:45;;;;;;;5.97;5.38;;;;;;;14.85;87.01;102352.38;5043276;28;20036;-76
2022/07/12 04:20:11;;;;;;;6.13;5.20;;;;;;;14.83;87.31;102362.97;5041510;28;20445;-76
2022/07/12 04:22:37;;;;;;;6.20;5.60;;;;;;;14.79;87.75;102366.75;5040289;28;20059;-76
2022/07/12 04:25:02;;;;;;;6.65;6.05;;;;;;;14.78;87.99;102375.53;5041530;28;20040;-76
2022/07/12 04:27:28;;;;;;;6.38;5.78;;;;;;;14.83;87.58;102378.63;5044193;28;20032;-76
2022/07/12 04:29:53;;;;;;;6.72;6.13;;;;;;;14.72;87.99;102370.75;5044110;28;20071;-78
2022/07/12 04:32:18;;;;;;;6.68;6.07;;;;;;;14.81;88.48;102385.75;5043499;28;20033;-76
2022/07/12 04:34:44;;;;;;;7.00;6.40;;;;;;;14.85;88.21;102389.81;5043971;28;20032;-77
2022/07/12 04:37:09;;;;;;;7.50;6.80;;;;;;;14.89;88.65;102379.94;5043622;28;20032;-77
2022/07/12 04:39:35;;;;;;;8.50;7.80;;;;;;;14.89;88.55;102377.34;5042538;28;20020;-76
2022/07/12 04:42:01;;;;;;;8.80;8.00;;;;;;;14.86;89.07;102365.34;5042810;28;20025;-76
2022/07/12 04:44:27;;;;;;;9.70;7.32;;;;;;;14.94;88.83;102369.16;5043566;28;20474;-77
2022/07/12 04:46:52;;;;;;;8.02;7.32;;;;;;;15.00;88.48;102361.69;5044771;28;20079;-76
2022/07/12 04:49:17;;;;;;;9.60;8.80;;;;;;;15.01;89.13;102359.91;5035807;28;20167;-76
2022/07/12 04:51:43;;;;;;;10.48;9.65;;;;;;;15.10;89.52;102370.50;5041591;28;20044;-77
2022/07/12 04:54:08;;;;;;;12.00;11.00;;;;;;;15.16;89.48;102369.19;5041257;28;20082;-76
2022/07/12 04:56:34;;;;;;;11.70;10.80;;;;;;;15.20;89.81;102375.88;5042095;28;20035;-77
2022/07/12 04:58:59;;;;;;;11.18;10.25;;;;;;;15.30;88.81;102376.81;5043683;28;20045;-77
2022/07/12 05:01:25;;;;;;;11.90;10.90;;;;;;;15.28;88.69;102368.25;5041189;28;20027;-76
2022/07/12 05:03:50;;;;;;;12.88;11.80;;;;;;;15.37;88.84;102378.00;5044872;28;20461;-77
2022/07/12 05:06:16;;;;;;;13.07;11.88;;;;;;;15.38;88.77;102374.44;5044240;28;20037;-77
2022/07/12 05:08:41;;;;;;;14.05;12.65;;;;;;;15.46;88.97;102376.44;5043304;28;20384;-76
2022/07/12 05:11:07;;;;;;;13.80;12.50;;;;;;;15.40;88.00;102371.69;5042773;28;20449;-76
2022/07/12 05:13:32;;;;;;;14.18;13.07;;;;;;;15.45;88.18;102390.47;5042970;28;20033;-76
2022/07/12 05:15:57;;;;;;;13.85;12.75;;;;;;;15.53;87.90;102387.25;5042197;28;20377;-77
2022/07/12 05:18:23;;;;;;;14.02;12.93;;;;;;;15.54;87.96;102394.16;5043584;28;20388;-76
2022/07/12 05:20:48;;;;;;;13.88;12.77;;;;;;;15.58;88.17;102390.34;5044507;28;20051;-76
2022/07/12 05:23:14;;;;;;;14.93;13.68;;;;;;;15.53;88.00;102376.81;5047342;28;20028;-76
2022/07/12 05:25:39;;;;;;;15.63;14.32;;;;;;;15.52;88.81;102391.66;5047656;28;20504;-77
2022/07/12 05:28:04;;;;;;;15.52;14.25;;;;;;;15.62;88.90;102399.63;5043601;28;20029;-76
2022/07/12 05:30:30;;;;;;;14.32;13.23;;;;;;;15.63;87.97;102393.47;5043506;28;20044;-77
2022/07/12 05:32:55;;;;;;;14.10;13.00;;;;;;;15.72;87.89;102408.47;5042326;28;20595;-76
2022/07/12 05:35:21;;;;;;;15.32;14.00;;;;;;;15.72;87.86;102398.00;5041935;28;20029;-76
2022/07/12 05:37:46;;;;;;;14.40;13.23;;;;;;;15.83;87.63;102405.84;5043174;28;20105;-77
2022/07/12 05:40:12;;;;;;;16.17;14.88;;;;;;;15.79;88.50;102403.59;5044550;28;20032;-76
2022/07/12 05:42:37;;;;;;;15.32;14.13;;;;;;;15.86;89.04;102426.53;5043619;28;20816;-76
2022/07/12 05:45:04;;;;;;;16.13;14.93;;;;;;;15.83;89.61;102424.16;5044468;28;20086;-76
2022/07/12 05:47:29;;;;;;;15.82;14.55;;;;;;;15.90;88.91;102422.72;5042489;28;20021;-78
2022/07/12 05:49:55;;;;;;;15.57;14.30;;;;;;;16.02;88.78;102441.03;5039511;28;20025;-76
2022/07/12 05:55:05;;;;;;;16.30;14.93;;;;;;;16.13;88.69;102438.38;5047876;28;20106;-77
2022/07/12 05:57:30;;;;;;;15.10;13.73;;;;;;;16.17;88.22;102440.66;5046851;28;20084;-76
2022/07/12 05:59:56;;;;;;;15.82;14.45;;;;;;;16.22;88.91;102427.16;5047557;28;20031;-76
2022/07/12 06:02:21;;;;;;;15.25;14.05;;;;;;;16.33;87.69;102435.00;5045209;28;20029;-76
2022/07/12 06:04:47;;;;;;;15.43;14.05;;;;;;;16.43;87.25;102441.16;5046033;28;20025;-76
2022/07/12 06:07:12;;;;;;;15.50;14.30;;;;;;;16.53;87.08;102440.44;5047535;28;20468;-76
2022/07/12 06:09:38;;;;;;;15.68;14.38;;;;;;;16.68;87.69;102452.25;5047984;28;20036;-76
2022/07/12 06:12:03;;;;;;;16.02;14.65;;;;;;;16.72;86.86;102440.59;5045082;28;20532;-76
2022/07/12 06:14:29;;;;;;;15.23;14.02;;;;;;;16.81;86.67;102434.63;5044983;28;20102;-76
2022/07/12 06:16:54;;;;;;;15.07;13.85;;;;;;;16.89;86.24;102453.16;5045851;28;20843;-76
2022/07/12 06:19:20;;;;;;;15.15;13.95;;;;;;;17.01;86.44;102442.63;5047082;28;20495;-78
2022/07/12 06:21:45;;;;;;;15.02;13.75;;;;;;;17.03;86.73;102427.56;5049054;28;20075;-76
2022/07/12 06:24:10;;;;;;;15.57;14.10;;;;;;;17.18;86.28;102421.88;5044345;28;20480;-75
2022/07/12 06:26:36;;;;;;;15.15;13.88;;;;;;;17.31;85.76;102442.66;5047105;28;20021;-77
2022/07/12 06:29:01;;;;;;;14.40;13.20;;;;;;;17.34;85.15;102436.34;5043053;28;20033;-76
2022/07/12 06:31:28;;;;;;;14.68;13.57;;;;;;;17.42;85.36;102439.94;5048857;28;20071;-75
2022/07/12 06:33:53;;;;;;;15.23;13.73;;;;;;;17.55;85.58;102444.16;5046097;28;20454;-77
2022/07/12 06:36:18;;;;;;;14.75;13.55;;;;;;;17.56;85.40;102430.09;5046795;28;20380;-75
2022/07/12 06:38:44;;;;;;;14.77;13.57;;;;;;;17.74;84.87;102441.66;5046921;28;20048;-76
2022/07/12 06:41:09;;;;;;;14.50;13.20;;;;;;;17.76;84.67;102424.81;5046753;28;20059;-75
2022/07/12 06:43:34;;;;;;;14.85;13.55;;;;;;;17.87;84.28;102429.13;5046393;28;20563;-76
2022/07/12 06:46:00;;;;;;;14.73;13.50;;;;;;;17.93;83.82;102428.59;5045104;28;20049;-76
2022/07/12 06:48:25;;;;;;;13.63;12.32;;;;;;;18.01;83.99;102423.50;5046249;28;20060;-76
2022/07/12 06:50:50;;;;;;;14.32;13.13;;;;;;;18.20;83.93;102429.75;5045273;28;20025;-76
2022/07/12 06:53:16;;;;;;;13.88;12.65;;;;;;;18.31;82.50;102438.34;5047896;28;20060;-76
2022/07/12 06:55:44;;;;;;;12.95;11.85;;;;;;;18.38;82.06;102443.03;5048141;28;20025;-76
2022/07/12 06:58:09;;;;;;;13.50;12.40;;;;;;;18.45;82.41;102438.91;5038673;28;20067;-76
2022/07/12 07:00:36;;;;;;;13.77;12.68;;;;;;;18.60;82.44;102441.97;5045745;28;20464;-76
2022/07/12 07:03:01;;;;;;;14.07;12.93;;;;;;;18.69;82.17;102436.72;5043171;28;20033;-75
2022/07/12 07:05:27;;;;;;;13.65;12.55;;;;;;;18.74;81.93;102431.03;5045698;28;20454;-75
2022/07/12 07:07:52;;;;;;;12.80;11.70;;;;;;;18.89;81.97;102434.09;5045667;28;20476;-76
2022/07/12 07:10:17;;;;;;;13.80;12.70;;;;;;;18.99;81.32;102429.66;5043387;28;20029;-75
2022/07/12 07:12:43;;;;;;;13.55;12.45;;;;;;;19.04;80.80;102430.88;5045031;28;20036;-76
2022/07/12 07:15:09;;;;;;;14.38;13.05;;;;;;;19.20;80.33;102432.06;5045499;28;20378;-75
2022/07/12 07:17:34;;;;;;;14.80;13.60;;;;;;;19.27;79.41;102431.38;5045177;28;20028;-76
2022/07/12 07:20:00;;;;;;;14.80;13.60;;;;;;;19.36;79.61;102434.94;5044632;28;20021;-75
2022/07/12 07:22:25;;;;;;;14.52;13.23;;;;;;;19.44;79.15;102432.44;5044986;28;20472;-76
2022/07/12 07:24:51;;;;;;;14.48;13.23;;;;;;;19.60;78.82;102437.94;5042187;28;20465;-78
2022/07/12 07:27:16;;;;;;;14.40;13.20;;;;;;;19.62;78.48;102430.72;5043801;28;20503;-74
2022/07/12 07:32:25;;;;;;;12.57;11.38;;;;;;;19.71;76.72;102428.19;5043368;28;20043;-76
2022/07/12 07:34:51;;;;;;;13.13;11.93;;;;;;;19.75;75.82;102434.81;5043060;28;20416;-75
2022/07/12 07:37:17;;;;;;;12.40;11.20;;;;;;;19.85;75.73;102435.63;5043892;28;20135;-79
2022/07/12 07:39:42;;;;;;;12.00;10.98;;;;;;;19.85;76.04;102425.91;5045295;28;20027;-74
2022/07/12 07:42:08;;;;;;;11.45;10.45;;;;;;;20.01;75.77;102441.03;5045297;28;20113;-74
2022/07/12 07:44:33;;;;;;;12.35;11.35;;;;;;;19.96;75.10;102432.78;5044089;28;20024;-75
2022/07/12 07:46:59;;;;;;;11.45;10.38;;;;;;;20.05;75.24;102434.50;5046179;28;20413;-75
2022/07/12 07:49:24;;;;;;;11.55;10.55;;;;;;;20.27;75.45;102440.34;5047495;28;20157;-75
2022/07/12 07:51:50;;;;;;;11.27;10.18;;;;;;;20.26;75.23;102439.50;5042929;28;20036;-75
2022/07/12 07:54:15;;;;;;;10.27;9.38;;;;;;;20.39;74.37;102433.88;5047019;28;20035;-74
2022/07/12 07:56:41;;;;;;;9.93;9.02;;;;;;;20.52;73.15;102434.34;5044386;28;20031;-75
2022/07/12 07:59:07;;;;;;;9.27;8.48;;;;;;;20.62;71.71;102429.00;5044733;28;20148;-74
2022/07/12 08:01:42;;;;;;;8.43;7.43;;;;;;;20.66;71.99;102430.34;5044626;28;20029;-75
2022/07/12 08:04:25;;;;;;;9.30;8.32;;;;;;;20.71;72.49;102430.72;5044028;28;20029;-75
2022/07/12 08:06:51;;;;;;;8.98;8.05;;;;;;;20.74;71.13;102437.50;5045061;28;20041;-75
2022/07/12 08:09:16;;;;;;;8.70;7.07;;;;;;;20.83;69.97;102442.69;5044092;28;20082;-78
2022/07/12 08:11:43;;;;;;;8.50;7.63;;;;;;;20.88;69.81;102447.50;5043287;28;20029;-75
2022/07/12 08:14:09;;;;;;;8.90;7.43;;;;;;;20.97;70.30;102441.31;5043647;28;20060;-76
2022/07/12 08:16:35;;;;;;;8.32;7.43;;;;;;;21.02;69.09;102441.66;5045476;28;20142;-77
2022/07/12 08:19:01;;;;;;;7.82;6.95;;;;;;;21.09;68.50;102447.97;5044105;28;20625;-75
2022/07/12 08:21:27;;;;;;;7.18;6.47;;;;;;;21.09;68.50;102432.16;5042411;28;20039;-75
2022/07/12 08:23:53;;;;;;;6.70;5.32;;;;;;;21.25;69.07;102441.16;5041970;28;20550;-75
2022/07/12 08:26:19;;;;;;;7.55;5.75;;;;;;;21.19;68.56;102443.44;5044395;28;20025;-74
2022/07/12 08:28:44;;;;;;;6.80;5.80;;;;;;;21.41;68.13;102444.75;5044157;28;20389;-75
2022/07/12 08:31:09;;;;;;;6.80;5.75;;;;;;;21.41;68.16;102436.00;5044063;28;20032;-75
2022/07/12 08:33:35;;;;;;;6.88;5.50;;;;;;;21.44;68.17;102449.69;5045156;28;20104;-75
2022/07/12 08:36:00;;;;;;;6.95;5.20;;;;;;;21.59;68.34;102447.31;5039719;28;20064;-76
2022/07/12 08:38:26;;;;;;;7.25;5.90;;;;;;;21.52;67.75;102448.94;5041847;28;20036;-75
2022/07/12 08:40:52;;;;;;;7.90;7.10;;;;;;;21.59;65.96;102455.22;5043218;28;20026;-75
2022/07/12 08:43:17;;;;;;;8.13;7.00;;;;;;;21.69;66.29;102461.22;5042638;28;20020;-76
2022/07/12 08:45:43;;;;;;;7.93;7.13;;;;;;;21.68;65.67;102458.75;5043760;28;20040;-76
2022/07/12 08:48:09;;;;;;;8.10;7.30;;;;;;;21.71;65.97;102468.97;5043493;28;20346;-76
2022/07/12 08:50:34;;;;;;;9.05;8.15;;;;;;;21.78;66.53;102469.16;5043527;28;20597;-76
2022/07/12 08:53:00;;;;;;;9.55;8.65;;;;;;;21.74;65.65;102466.84;5041725;28;20066;-75
2022/07/12 08:55:26;;;;;;;10.07;9.18;;;;;;;21.78;64.87;102463.88;5044090;28;20048;-75
2022/07/12 08:57:59;;;;;;;10.73;9.73;;;;;;;21.87;66.25;102470.88;5043487;28;20484;-77
2022/07/12 09:00:26;;;;;;;10.40;9.45;;;;;;;22.01;64.96;102462.31;5043858;28;20024;-75
2022/07/12 09:02:54;;;;;;;11.67;10.57;;;;;;;21.97;65.31;102463.66;5039081;28;20046;-74
2022/07/12 09:05:25;;;;;;;11.43;10.43;;;;;;;22.21;64.45;102454.97;5042333;28;20047;-75
2022/07/12 09:07:51;;;;;;;11.82;10.65;;;;;;;22.29;63.64;102459.44;5042514;28;20032;-75
2022/07/12 09:10:18;;;;;;;11.77;10.75;;;;;;;22.41;63.11;102444.91;5043431;28;20021;-75
2022/07/12 09:12:44;;;;;;;11.80;10.60;;;;;;;22.57;62.20;102457.34;5044889;28;20036;-76
2022/07/12 09:15:29;;;;;;;10.27;9.25;;;;;;;22.69;62.72;102454.19;5043056;28;20028;-75
2022/07/12 09:18:03;;;;;;;13.00;11.82;;;;;;;22.70;60.82;102455.00;5042178;28;20048;-76
2022/07/12 09:20:32;;;;;;;10.93;9.82;;;;;;;22.91;61.43;102451.91;5043609;28;20020;-76
2022/07/12 09:23:04;;;;;;;13.00;11.60;;;;;;;22.79;60.35;102457.50;5043651;28;20032;-75
2022/07/12 09:25:30;;;;;;;12.95;11.85;;;;;;;22.94;59.52;102451.56;5043760;28;20025;-76
2022/07/12 09:27:57;;;;;;;11.35;10.20;;;;;;;22.97;61.70;102445.94;5048640;28;20104;-76
2022/07/12 09:30:27;;;;;;;9.48;8.38;;;;;;;23.23;58.66;102454.50;5047609;28;20051;-76
2022/07/12 09:36:13;;;;;;;11.57;10.50;;;;;;;23.40;58.75;102451.78;5045288;28;20384;-77
2022/07/12 09:38:48;;;;;;;10.68;9.68;;;;;;;23.50;58.10;102433.88;5041759;28;20463;-76
2022/07/12 09:41:17;;;;;;;12.02;10.80;;;;;;;23.63;57.82;102444.81;5047007;28;20104;-77
2022/07/12 09:43:43;;;;;;;11.85;10.75;;;;;;;23.51;57.77;102432.88;5047259;28;20025;-76
2022/07/12 09:46:10;;;;;;;8.38;7.57;;;;;;;23.85;57.90;102438.72;5047743;28;20067;-76
2022/07/12 09:48:36;;;;;;;9.00;8.10;;;;;;;23.88;56.18;102445.53;5047305;28;20025;-76
2022/07/12 09:51:04;;;;;;;9.48;8.57;;;;;;;24.03;55.00;102440.31;5047616;28;20017;-76
2022/07/12 09:53:38;;;;;;;8.50;7.70;;;;;;;24.19;56.24;102437.53;5046592;28;20031;-76
2022/07/12 09:56:05;;;;;;;7.05;5.88;;;;;;;24.30;54.94;102429.19;5047685;28;20017;-76
2022/07/12 09:58:37;;;;;;;8.77;7.20;;;;;;;24.24;54.29;102419.28;5048162;28;20055;-76
2022/07/12 10:01:02;;;;;;;9.82;8.93;;;;;;;24.23;55.19;102416.81;5047471;28;20025;-77
2022/07/12 10:03:31;;;;;;;10.93;9.93;;;;;;;24.15;54.74;102417.69;5040475;28;20074;-76
2022/07/12 10:06:00;;;;;;;7.88;6.80;;;;;;;24.52;54.20;102421.41;5044934;28;20070;-76
2022/07/12 10:08:25;;;;;;;9.35;8.10;;;;;;;24.54;53.39;102424.72;5047909;28;20033;-76
2022/07/12 10:10:51;;;;;;;8.70;7.80;;;;;;;24.55;53.79;102410.47;5046082;28;20044;-77
2022/07/12 10:13:18;;;;;;;11.07;10.15;;;;;;;24.69;52.91;102419.47;5047463;28;20402;-77
2022/07/12 10:15:45;;;;;;;9.60;8.70;;;;;;;24.69;54.84;102407.00;5046310;28;20365;-76
2022/07/12 10:18:21;;;;;;;9.45;8.48;;;;;;;24.90;53.92;102423.06;5048177;28;20478;-77
2022/07/12 10:20:50;;;;;;;8.73;7.82;;;;;;;25.10;53.60;102419.91;5044029;28;20025;-76
2022/07/12 10:23:34;;;;;;;10.43;9.40;;;;;;;25.15;54.26;102418.34;5045398;28;20043;-76
2022/07/12 10:26:19;;;;;;;10.02;9.10;;;;;;;25.15;54.36;102422.84;5045619;28;20054;-77
2022/07/12 10:29:01;;;;;;;9.23;8.32;;;;;;;25.22;54.55;102433.56;5043787;28;20033;-76
2022/07/12 10:31:34;;;;;;;8.77;7.88;;;;;;;25.26;52.03;102425.03;5044034;28;20051;-76
2022/07/12 10:34:07;;;;;;;9.32;6.97;;;;;;;25.37;52.72;102427.22;5045673;28;20024;-77
2022/07/12 10:36:55;;;;;;;8.02;7.00;;;;;;;25.62;53.01;102432.25;5045527;28;20482;-76
2022/07/12 10:39:26;;;;;;;7.05;6.35;;;;;;;25.71;52.23;102433.78;5045515;28;20037;-77
2022/07/12 10:42:13;;;;;;;9.98;8.23;;;;;;;25.74;53.41;102432.63;5045963;28;20029;-76
2022/07/12 10:44:40;;;;;;;;;;;;;;;25.93;54.72;102427.53;5046547;28;20020;-76
2022/07/12 10:47:07;;;;;;;10.10;9.10;;;;;;;25.31;51.42;102433.28;5046958;28;20388;-76
2022/07/12 10:49:35;;;;;;;8.30;7.40;;;;;;;25.53;55.11;102436.03;5042327;28;20044;-76
2022/07/12 10:52:10;;;;;;;;;;;;;;;25.80;55.77;102445.97;5041605;28;20134;-76
2022/07/12 10:55:08;;;;;;;7.95;6.55;;;;;;;25.80;50.61;102440.66;5046549;28;20357;-76
2022/07/12 10:57:43;;;;;;;9.45;8.43;;;;;;;25.58;50.10;102430.97;5044858;28;20389;-76
2022/07/12 11:00:11;;;;;;;8.52;7.20;;;;;;;25.46;49.14;102419.97;5042930;28;20347;-76
2022/07/12 11:02:36;;;;;;;7.83;7.13;;;;;;;25.53;53.00;102430.72;5045421;28;20035;-76
2022/07/12 11:05:03;;;;;;;9.52;8.18;;;;;;;25.64;52.67;102425.75;5046474;28;20443;-76
2022/07/12 11:07:28;;;;;;;8.95;7.88;;;;;;;25.72;51.93;102427.47;5047059;28;20032;-76
2022/07/12 11:09:54;;;;;;;7.28;6.10;;;;;;;25.88;52.72;102435.25;5043957;28;20029;-76
2022/07/12 11:12:21;;;;;;;7.30;6.60;;;;;;;25.87;51.10;102430.13;5045653;28;20025;-76
2022/07/12 11:14:46;;;;;;;7.40;6.43;;;;;;;25.76;52.57;102422.63;5046270;28;20488;-76
2022/07/12 11:17:12;;;;;;;7.93;6.85;;;;;;;26.11;50.15;102424.44;5044847;28;20025;-76
2022/07/12 11:19:38;;;;;;;10.75;8.23;;;;;;;25.55;49.27;102418.88;5042707;28;20096;-76
2022/07/12 11:22:03;;;;;;;7.78;6.53;;;;;;;25.62;52.65;102422.44;5044919;28;20028;-76
2022/07/12 11:24:31;;;;;;;10.23;9.23;;;;;;;25.40;51.35;102416.25;5039769;28;20064;-76
2022/07/12 11:26:59;;;;;;;9.32;8.25;;;;;;;25.40;53.46;102416.25;5038882;28;20032;-76
2022/07/12 11:29:25;;;;;;;8.05;7.25;;;;;;;25.68;51.77;102420.88;5040362;28;20029;-76
2022/07/12 11:32:07;;;;;;;11.40;7.47;;;;;;;25.60;51.30;102423.63;5044050;28;20028;-76